CXA126 ZHCC-ZSQZ
Flight info
| Callsign | CXA126 |
|---|---|
| Flight time | N/A |
| Altitude | 31100 |
| Route | RUM9W RUMGU W594 EPGOS W128 FYG B208 HFE R343 MADUK DCT FQG |
| Aircraft | B738/M-SDE2E3FGHIRWXY/LB1 |
Departure
| Time | 2026-04-28 13:16 |
|---|---|
| Airport | Zhengzhou Xinzheng International Airport (ZHCC) |
Arrival
| Time | N/A |
|---|---|
| Airport | Quanzhou Jinjiang International Airport (ZSQZ) |
| Time | Latitude | Longitude | Altitude | Speed | Heading |
|---|---|---|---|---|---|
| 2026-04-28 13:16 | 34.48981 | 113.98682 | 5083 ft | 257 kts | 112° |
| 2026-04-28 13:16 | 34.48276 | 114.00687 | 5856 ft | 261 kts | 111° |
| 2026-04-28 13:16 | 34.47557 | 114.02730 | 6637 ft | 265 kts | 111° |
| 2026-04-28 13:17 | 34.46827 | 114.04802 | 7353 ft | 270 kts | 112° |
| 2026-04-28 13:17 | 34.45904 | 114.06812 | 8052 ft | 277 kts | 125° |
| 2026-04-28 13:17 | 34.44644 | 114.08614 | 8771 ft | 282 kts | 130° |
| 2026-04-28 13:17 | 34.43282 | 114.10363 | 9482 ft | 288 kts | 131° |
| 2026-04-28 13:18 | 34.41887 | 114.12124 | 9813 ft | 292 kts | 131° |
| 2026-04-28 13:18 | 34.40489 | 114.13895 | 9827 ft | 291 kts | 131° |
| 2026-04-28 13:18 | 34.39093 | 114.15678 | 9839 ft | 292 kts | 131° |
| 2026-04-28 13:18 | 34.37697 | 114.17472 | 9847 ft | 293 kts | 131° |
| 2026-04-28 13:19 | 34.36306 | 114.19268 | 9921 ft | 291 kts | 131° |
| 2026-04-28 13:19 | 34.34946 | 114.21026 | 10319 ft | 291 kts | 131° |
| 2026-04-28 13:19 | 34.33557 | 114.22828 | 10827 ft | 293 kts | 131° |
| 2026-04-28 13:19 | 34.32161 | 114.24638 | 11510 ft | 296 kts | 131° |
| 2026-04-28 13:20 | 34.30750 | 114.26469 | 12175 ft | 300 kts | 131° |
| 2026-04-28 13:20 | 34.29320 | 114.28323 | 12810 ft | 304 kts | 131° |
| 2026-04-28 13:20 | 34.27867 | 114.30206 | 13467 ft | 307 kts | 131° |
| 2026-04-28 13:20 | 34.26402 | 114.32106 | 14109 ft | 311 kts | 131° |
| 2026-04-28 13:21 | 34.24907 | 114.34042 | 14580 ft | 319 kts | 132° |
| 2026-04-28 13:21 | 34.23380 | 114.36017 | 15075 ft | 326 kts | 132° |
| 2026-04-28 13:21 | 34.21740 | 114.37981 | 15290 ft | 338 kts | 145° |
| 2026-04-28 13:21 | 34.19651 | 114.39233 | 15740 ft | 338 kts | 159° |
| 2026-04-28 13:22 | 34.17435 | 114.40324 | 16082 ft | 351 kts | 159° |
| 2026-04-28 13:22 | 34.15103 | 114.41458 | 16198 ft | 370 kts | 159° |
| 2026-04-28 13:22 | 34.12657 | 114.42650 | 16336 ft | 388 kts | 159° |
| 2026-04-28 13:22 | 34.10108 | 114.43899 | 16462 ft | 404 kts | 159° |
| 2026-04-28 13:23 | 34.07457 | 114.45207 | 16682 ft | 417 kts | 159° |
| 2026-04-28 13:23 | 34.04756 | 114.46547 | 17036 ft | 424 kts | 159° |
| 2026-04-28 13:23 | 34.02013 | 114.47910 | 17549 ft | 427 kts | 159° |
| 2026-04-28 13:23 | 33.99264 | 114.49278 | 18089 ft | 428 kts | 160° |
| 2026-04-28 13:24 | 33.96496 | 114.50655 | 18611 ft | 430 kts | 160° |
| 2026-04-28 13:24 | 33.93718 | 114.52035 | 19053 ft | 432 kts | 160° |
| 2026-04-28 13:24 | 33.90931 | 114.53418 | 19515 ft | 434 kts | 161° |
| 2026-04-28 13:24 | 33.89083 | 114.54334 | 19809 ft | 435 kts | 161° |
| 2026-04-28 13:25 | 33.85370 | 114.56173 | 20364 ft | 438 kts | 161° |
| 2026-04-28 13:25 | 33.82541 | 114.57573 | 20765 ft | 440 kts | 162° |
| 2026-04-28 13:25 | 33.79704 | 114.58977 | 21177 ft | 442 kts | 162° |
| 2026-04-28 13:25 | 33.76848 | 114.60389 | 21583 ft | 444 kts | 162° |
| 2026-04-28 13:26 | 33.74918 | 114.61343 | 21839 ft | 445 kts | 163° |
| 2026-04-28 13:26 | 33.72044 | 114.62763 | 22220 ft | 447 kts | 163° |
| 2026-04-28 13:26 | 33.69160 | 114.64186 | 22591 ft | 449 kts | 163° |
| 2026-04-28 13:26 | 33.66300 | 114.65596 | 23013 ft | 448 kts | 164° |
| 2026-04-28 13:27 | 33.63419 | 114.66990 | 23474 ft | 447 kts | 165° |
| 2026-04-28 13:27 | 33.60512 | 114.68366 | 23776 ft | 449 kts | 165° |
| 2026-04-28 13:27 | 33.57592 | 114.69742 | 24000 ft | 452 kts | 165° |
| 2026-04-28 13:27 | 33.54661 | 114.71129 | 24251 ft | 454 kts | 165° |
| 2026-04-28 13:28 | 33.51722 | 114.72523 | 24524 ft | 455 kts | 165° |
| 2026-04-28 13:28 | 33.48801 | 114.74078 | 24760 ft | 466 kts | 156° |
| 2026-04-28 13:28 | 33.46255 | 114.76597 | 24961 ft | 486 kts | 138° |
| 2026-04-28 13:28 | 33.44046 | 114.79673 | 25257 ft | 488 kts | 136° |
| 2026-04-28 13:29 | 33.41864 | 114.82791 | 25478 ft | 491 kts | 136° |
| 2026-04-28 13:29 | 33.39665 | 114.85935 | 25646 ft | 493 kts | 136° |
| 2026-04-28 13:29 | 33.37453 | 114.89072 | 25986 ft | 491 kts | 137° |
| 2026-04-28 13:29 | 33.35240 | 114.92180 | 26284 ft | 491 kts | 137° |
| 2026-04-28 13:30 | 33.33014 | 114.95279 | 26453 ft | 494 kts | 137° |
| 2026-04-28 13:30 | 33.30758 | 114.98399 | 26615 ft | 496 kts | 137° |